sensor_id;sensor_type;location;lat;lon;timestamp;pressure;altitude;pressure_sealevel;temperature;humidity
57102;BME280;42982;54.558;18.508;2022-10-31T00:00:48;101156.94;;;11.54;77.88
57102;BME280;42982;54.558;18.508;2022-10-31T00:01:50;101163.94;;;11.55;77.73
57102;BME280;42982;54.558;18.508;2022-10-31T00:02:53;101157.44;;;11.56;77.71
57102;BME280;42982;54.558;18.508;2022-10-31T00:03:58;101153.16;;;11.55;77.68
57102;BME280;42982;54.558;18.508;2022-10-31T00:05:05;101163.94;;;11.55;77.47
57102;BME280;42982;54.558;18.508;2022-10-31T00:06:13;101162.03;;;11.55;77.41
57102;BME280;42982;54.558;18.508;2022-10-31T00:07:16;101165.53;;;11.56;77.24
57102;BME280;42982;54.558;18.508;2022-10-31T00:08:19;101161.78;;;11.57;77.30
57102;BME280;42982;54.558;18.508;2022-10-31T00:09:24;101167.16;;;11.57;77.31
57102;BME280;42982;54.558;18.508;2022-10-31T00:10:32;101154.75;;;11.56;77.12
57102;BME280;42982;54.558;18.508;2022-10-31T00:11:36;101162.03;;;11.55;77.17
57102;BME280;42982;54.558;18.508;2022-10-31T00:12:41;101157.44;;;11.56;77.02
57102;BME280;42982;54.558;18.508;2022-10-31T00:13:46;101149.38;;;11.56;77.31
57102;BME280;42982;54.558;18.508;2022-10-31T00:14:51;101148.56;;;11.55;76.95
57102;BME280;42982;54.558;18.508;2022-10-31T00:15:56;101154.50;;;11.52;76.81
57102;BME280;42982;54.558;18.508;2022-10-31T00:16:59;101153.69;;;11.52;76.72
57102;BME280;42982;54.558;18.508;2022-10-31T00:18:03;101152.59;;;11.53;76.84
57102;BME280;42982;54.558;18.508;2022-10-31T00:19:10;101155.31;;;11.53;76.94
57102;BME280;42982;54.558;18.508;2022-10-31T00:20:14;101158.78;;;11.53;76.58
57102;BME280;42982;54.558;18.508;2022-10-31T00:21:19;101148.84;;;11.54;76.92
57102;BME280;42982;54.558;18.508;2022-10-31T00:22:21;101157.75;;;11.54;76.90
57102;BME280;42982;54.558;18.508;2022-10-31T00:23:26;101156.38;;;11.52;76.80
57102;BME280;42982;54.558;18.508;2022-10-31T00:24:29;101155.03;;;11.49;76.37
57102;BME280;42982;54.558;18.508;2022-10-31T00:25:34;101153.16;;;11.45;76.34
57102;BME280;42982;54.558;18.508;2022-10-31T00:26:36;101151.00;;;11.42;76.55
57102;BME280;42982;54.558;18.508;2022-10-31T00:27:43;101153.69;;;11.42;76.47
57102;BME280;42982;54.558;18.508;2022-10-31T00:28:46;101152.06;;;11.41;76.52
57102;BME280;42982;54.558;18.508;2022-10-31T00:29:49;101151.53;;;11.39;76.66
57102;BME280;42982;54.558;18.508;2022-10-31T00:30:53;101160.44;;;11.39;76.64
57102;BME280;42982;54.558;18.508;2022-10-31T00:31:58;101156.94;;;11.39;76.77
57102;BME280;42982;54.558;18.508;2022-10-31T00:33:03;101161.22;;;11.40;77.03
57102;BME280;42982;54.558;18.508;2022-10-31T00:34:07;101159.63;;;11.39;76.64
57102;BME280;42982;54.558;18.508;2022-10-31T00:35:10;101152.09;;;11.35;76.78
57102;BME280;42982;54.558;18.508;2022-10-31T00:36:14;101159.06;;;11.36;76.59
57102;BME280;42982;54.558;18.508;2022-10-31T00:37:17;101155.56;;;11.36;76.46
57102;BME280;42982;54.558;18.508;2022-10-31T00:38:21;101158.53;;;11.34;76.62
57102;BME280;42982;54.558;18.508;2022-10-31T00:39:24;101149.66;;;11.34;76.68
57102;BME280;42982;54.558;18.508;2022-10-31T00:40:28;101161.75;;;11.31;76.27
57102;BME280;42982;54.558;18.508;2022-10-31T00:41:31;101153.69;;;11.31;76.36
57102;BME280;42982;54.558;18.508;2022-10-31T00:42:34;101158.53;;;11.29;76.46
57102;BME280;42982;54.558;18.508;2022-10-31T00:43:36;101156.91;;;11.28;76.58
57102;BME280;42982;54.558;18.508;2022-10-31T00:44:44;101159.59;;;11.28;76.58
57102;BME280;42982;54.558;18.508;2022-10-31T00:45:46;101166.63;;;11.29;76.97
57102;BME280;42982;54.558;18.508;2022-10-31T00:46:49;101161.78;;;11.26;76.79
57102;BME280;42982;54.558;18.508;2022-10-31T00:47:57;101162.03;;;11.25;76.95
57102;BME280;42982;54.558;18.508;2022-10-31T00:49:01;101162.56;;;11.27;77.05
57102;BME280;42982;54.558;18.508;2022-10-31T00:50:06;101167.16;;;11.26;77.18
57102;BME280;42982;54.558;18.508;2022-10-31T00:51:09;101161.78;;;11.26;76.97
57102;BME280;42982;54.558;18.508;2022-10-31T00:52:11;101163.91;;;11.24;76.86
57102;BME280;42982;54.558;18.508;2022-10-31T00:53:14;101161.22;;;11.24;77.05
57102;BME280;42982;54.558;18.508;2022-10-31T00:54:17;101169.28;;;11.24;77.35
57102;BME280;42982;54.558;18.508;2022-10-31T00:55:20;101157.97;;;11.22;77.06
57102;BME280;42982;54.558;18.508;2022-10-31T00:56:23;101161.50;;;11.23;77.19
57102;BME280;42982;54.558;18.508;2022-10-31T00:57:28;101153.94;;;11.25;77.34
57102;BME280;42982;54.558;18.508;2022-10-31T00:58:31;101158.00;;;11.27;77.42
57102;BME280;42982;54.558;18.508;2022-10-31T00:59:34;101162.56;;;11.27;77.53
57102;BME280;42982;54.558;18.508;2022-10-31T01:00:36;101161.22;;;11.24;77.37
57102;BME280;42982;54.558;18.508;2022-10-31T01:01:42;101158.25;;;11.21;77.65
57102;BME280;42982;54.558;18.508;2022-10-31T01:02:50;101166.88;;;11.23;77.76
57102;BME280;42982;54.558;18.508;2022-10-31T01:03:55;101164.72;;;11.25;78.29
57102;BME280;42982;54.558;18.508;2022-10-31T01:04:58;101166.88;;;11.23;78.11
57102;BME280;42982;54.558;18.508;2022-10-31T01:06:06;101167.41;;;11.20;78.14
57102;BME280;42982;54.558;18.508;2022-10-31T01:07:08;101167.66;;;11.18;78.63
57102;BME280;42982;54.558;18.508;2022-10-31T01:08:12;101170.09;;;11.20;78.94
57102;BME280;42982;54.558;18.508;2022-10-31T01:09:15;101172.81;;;11.20;78.72
57102;BME280;42982;54.558;18.508;2022-10-31T01:10:23;101175.50;;;11.20;78.89
57102;BME280;42982;54.558;18.508;2022-10-31T01:11:27;101171.72;;;11.21;79.22
57102;BME280;42982;54.558;18.508;2022-10-31T01:12:30;101175.22;;;11.21;79.63
57102;BME280;42982;54.558;18.508;2022-10-31T01:13:39;101173.31;;;11.22;79.80
57102;BME280;42982;54.558;18.508;2022-10-31T01:14:45;101176.56;;;11.24;79.67
57102;BME280;42982;54.558;18.508;2022-10-31T01:15:55;101169.31;;;11.19;79.32
57102;BME280;42982;54.558;18.508;2022-10-31T01:16:57;101171.69;;;11.16;79.93
57102;BME280;42982;54.558;18.508;2022-10-31T01:18:02;101171.44;;;11.12;79.84
57102;BME280;42982;54.558;18.508;2022-10-31T01:19:06;101168.22;;;11.10;80.01
57102;BME280;42982;54.558;18.508;2022-10-31T01:20:13;101170.34;;;11.08;79.89
57102;BME280;42982;54.558;18.508;2022-10-31T01:21:21;101170.59;;;11.06;79.97
57102;BME280;42982;54.558;18.508;2022-10-31T01:22:24;101177.06;;;11.05;80.49
57102;BME280;42982;54.558;18.508;2022-10-31T01:23:27;101173.03;;;11.03;80.52
57102;BME280;42982;54.558;18.508;2022-10-31T01:24:32;101167.63;;;11.03;80.45
57102;BME280;42982;54.558;18.508;2022-10-31T01:25:37;101168.44;;;11.03;80.58
57102;BME280;42982;54.558;18.508;2022-10-31T01:26:43;101178.69;;;11.01;80.81
57102;BME280;42982;54.558;18.508;2022-10-31T01:27:49;101177.31;;;10.99;80.50
57102;BME280;42982;54.558;18.508;2022-10-31T01:28:55;101177.84;;;10.96;80.93
57102;BME280;42982;54.558;18.508;2022-10-31T01:29:58;101182.16;;;10.92;81.03
57102;BME280;42982;54.558;18.508;2022-10-31T01:31:05;101175.16;;;10.90;81.45
57102;BME280;42982;54.558;18.508;2022-10-31T01:32:09;101178.38;;;10.93;81.36
57102;BME280;42982;54.558;18.508;2022-10-31T01:33:12;101183.00;;;10.97;81.73
57102;BME280;42982;54.558;18.508;2022-10-31T01:34:19;101176.78;;;10.97;81.72
57102;BME280;42982;54.558;18.508;2022-10-31T01:35:22;101176.78;;;10.97;82.15
57102;BME280;42982;54.558;18.508;2022-10-31T01:36:32;101169.53;;;10.97;81.92
57102;BME280;42982;54.558;18.508;2022-10-31T01:37:35;101177.31;;;10.99;82.18
57102;BME280;42982;54.558;18.508;2022-10-31T01:38:37;101166.56;;;10.99;82.53
57102;BME280;42982;54.558;18.508;2022-10-31T01:39:40;101162.28;;;10.98;82.67
57102;BME280;42982;54.558;18.508;2022-10-31T01:40:46;101164.97;;;10.98;82.98
57102;BME280;42982;54.558;18.508;2022-10-31T01:41:51;101162.81;;;10.95;83.06
57102;BME280;42982;54.558;18.508;2022-10-31T01:42:54;101164.41;;;10.96;83.61
57102;BME280;42982;54.558;18.508;2022-10-31T01:44:02;101167.38;;;10.94;83.30
57102;BME280;42982;54.558;18.508;2022-10-31T01:45:09;101170.31;;;10.93;83.65
57102;BME280;42982;54.558;18.508;2022-10-31T01:46:18;101166.28;;;10.90;83.47
57102;BME280;42982;54.558;18.508;2022-10-31T01:47:38;101164.91;;;10.87;84.04
57102;BME280;42982;54.558;18.508;2022-10-31T01:48:41;101164.38;;;10.85;83.76
57102;BME280;42982;54.558;18.508;2022-10-31T01:49:49;101165.44;;;10.84;83.92
57102;BME280;42982;54.558;18.508;2022-10-31T01:50:56;101156.84;;;10.87;84.38
57102;BME280;42982;54.558;18.508;2022-10-31T01:52:16;101160.09;;;10.89;84.46
57102;BME280;42982;54.558;18.508;2022-10-31T01:53:22;101162.78;;;10.89;84.51
57102;BME280;42982;54.558;18.508;2022-10-31T01:54:32;101164.94;;;10.93;84.99
57102;BME280;42982;54.558;18.508;2022-10-31T01:55:44;101163.84;;;10.94;85.32
57102;BME280;42982;54.558;18.508;2022-10-31T01:56:53;101157.41;;;10.95;85.38
57102;BME280;42982;54.558;18.508;2022-10-31T01:58:07;101163.84;;;10.94;85.11
57102;BME280;42982;54.558;18.508;2022-10-31T01:59:16;101168.16;;;10.89;85.49
57102;BME280;42982;54.558;18.508;2022-10-31T02:00:22;101162.50;;;10.86;85.56
57102;BME280;42982;54.558;18.508;2022-10-31T02:01:27;101164.13;;;10.82;86.20
57102;BME280;42982;54.558;18.508;2022-10-31T02:02:31;101165.16;;;10.81;85.98
57102;BME280;42982;54.558;18.508;2022-10-31T02:03:35;101167.59;;;10.82;86.34
57102;BME280;42982;54.558;18.508;2022-10-31T02:04:41;101165.44;;;10.84;86.55
57102;BME280;42982;54.558;18.508;2022-10-31T02:05:50;101168.13;;;10.84;86.98
57102;BME280;42982;54.558;18.508;2022-10-31T02:07:17;101175.41;;;10.84;86.57
57102;BME280;42982;54.558;18.508;2022-10-31T02:08:30;101176.19;;;10.84;86.67
57102;BME280;42982;54.558;18.508;2022-10-31T02:09:34;101177.28;;;10.83;86.69
57102;BME280;42982;54.558;18.508;2022-10-31T02:10:38;101171.09;;;10.83;86.94
57102;BME280;42982;54.558;18.508;2022-10-31T02:11:43;101168.69;;;10.81;87.24
57102;BME280;42982;54.558;18.508;2022-10-31T02:12:49;101168.94;;;10.80;87.43
57102;BME280;42982;54.558;18.508;2022-10-31T02:13:53;101169.75;;;10.80;87.63
57102;BME280;42982;54.558;18.508;2022-10-31T02:14:59;101169.75;;;10.80;88.31
57102;BME280;42982;54.558;18.508;2022-10-31T02:16:05;101171.38;;;10.81;88.30
57102;BME280;42982;54.558;18.508;2022-10-31T02:17:09;101173.00;;;10.82;88.56
57102;BME280;42982;54.558;18.508;2022-10-31T02:18:12;101177.56;;;10.82;88.79
57102;BME280;42982;54.558;18.508;2022-10-31T02:34:18;101181.56;;;10.69;92.55
57102;BME280;42982;54.558;18.508;2022-10-31T02:35:37;101191.50;;;10.74;93.12
57102;BME280;42982;54.558;18.508;2022-10-31T02:37:24;101186.94;;;10.74;93.13
57102;BME280;42982;54.558;18.508;2022-10-31T02:41:42;101192.63;;;10.83;93.91
57102;BME280;42982;54.558;18.508;2022-10-31T02:42:50;101203.34;;;10.78;94.32
57102;BME280;42982;54.558;18.508;2022-10-31T02:45:48;101198.81;;;10.78;94.46
57102;BME280;42982;54.558;18.508;2022-10-31T02:47:14;101203.34;;;10.78;95.17
57102;BME280;42982;54.558;18.508;2022-10-31T02:48:23;101195.56;;;10.76;95.37
57102;BME280;42982;54.558;18.508;2022-10-31T02:50:58;101199.31;;;10.70;95.74
57102;BME280;42982;54.558;18.508;2022-10-31T02:52:01;101191.75;;;10.67;95.87
57102;BME280;42982;54.558;18.508;2022-10-31T02:53:09;101196.63;;;10.70;96.32
57102;BME280;42982;54.558;18.508;2022-10-31T02:54:21;101197.41;;;10.71;96.48
57102;BME280;42982;54.558;18.508;2022-10-31T02:56:35;101192.31;;;10.69;97.16
57102;BME280;42982;54.558;18.508;2022-10-31T02:57:42;101200.38;;;10.69;97.29
57102;BME280;42982;54.558;18.508;2022-10-31T02:58:50;101199.56;;;10.68;97.17
57102;BME280;42982;54.558;18.508;2022-10-31T03:00:00;101199.56;;;10.68;97.88
57102;BME280;42982;54.558;18.508;2022-10-31T03:01:20;101200.38;;;10.69;97.79
57102;BME280;42982;54.558;18.508;2022-10-31T03:03:09;101202.56;;;10.72;97.98
57102;BME280;42982;54.558;18.508;2022-10-31T03:06:38;101207.97;;;10.82;98.89
57102;BME280;42982;54.558;18.508;2022-10-31T03:08:58;101208.75;;;10.83;99.10
57102;BME280;42982;54.558;18.508;2022-10-31T03:11:44;101209.59;;;10.88;99.60
57102;BME280;42982;54.558;18.508;2022-10-31T03:14:09;101209.59;;;10.88;99.73
57102;BME280;42982;54.558;18.508;2022-10-31T03:16:12;101214.44;;;10.97;99.99
57102;BME280;42982;54.558;18.508;2022-10-31T03:17:33;101211.50;;;10.98;100.00
57102;BME280;42982;54.558;18.508;2022-10-31T03:18:47;101216.09;;;10.98;100.00
57102;BME280;42982;54.558;18.508;2022-10-31T03:19:53;101217.97;;;10.97;100.00
57102;BME280;42982;54.558;18.508;2022-10-31T03:21:04;101211.22;;;11.00;100.00
57102;BME280;42982;54.558;18.508;2022-10-31T03:22:19;101213.38;;;10.98;100.00
57102;BME280;42982;54.558;18.508;2022-10-31T03:23:26;101213.91;;;11.00;100.00
57102;BME280;42982;54.558;18.508;2022-10-31T03:24:35;101215.53;;;10.96;100.00
57102;BME280;42982;54.558;18.508;2022-10-31T03:25:41;101214.16;;;10.93;100.00
57102;BME280;42982;54.558;18.508;2022-10-31T03:26:50;101219.81;;;10.92;100.00
57102;BME280;42982;54.558;18.508;2022-10-31T03:28:01;101220.34;;;10.94;100.00
57102;BME280;42982;54.558;18.508;2022-10-31T03:29:10;101218.50;;;10.94;100.00
57102;BME280;42982;54.558;18.508;2022-10-31T03:30:17;101216.34;;;10.91;100.00
57102;BME280;42982;54.558;18.508;2022-10-31T03:31:34;101227.34;;;10.89;100.00
57102;BME280;42982;54.558;18.508;2022-10-31T03:32:51;101227.63;;;10.93;100.00
57102;BME280;42982;54.558;18.508;2022-10-31T03:33:56;101217.13;;;10.92;100.00
57102;BME280;42982;54.558;18.508;2022-10-31T03:35:05;101232.19;;;10.93;100.00
57102;BME280;42982;54.558;18.508;2022-10-31T03:36:14;101227.63;;;10.93;100.00
57102;BME280;42982;54.558;18.508;2022-10-31T03:37:29;101220.34;;;10.94;100.00
57102;BME280;42982;54.558;18.508;2022-10-31T03:38:35;101222.50;;;10.81;100.00
57102;BME280;42982;54.558;18.508;2022-10-31T03:39:39;101217.63;;;10.83;100.00
57102;BME280;42982;54.558;18.508;2022-10-31T03:40:45;101219.25;;;10.84;100.00
57102;BME280;42982;54.558;18.508;2022-10-31T03:42:00;101218.44;;;10.84;100.00
57102;BME280;42982;54.558;18.508;2022-10-31T03:43:10;101219.53;;;10.83;100.00
57102;BME280;42982;54.558;18.508;2022-10-31T03:44:17;101218.19;;;10.85;100.00
57102;BME280;42982;54.558;18.508;2022-10-31T03:45:30;101220.34;;;10.88;100.00
57102;BME280;42982;54.558;18.508;2022-10-31T03:46:32;101213.91;;;10.89;100.00
57102;BME280;42982;54.558;18.508;2022-10-31T03:47:41;101212.00;;;10.90;100.00
57102;BME280;42982;54.558;18.508;2022-10-31T03:48:48;101218.72;;;10.87;100.00
57102;BME280;42982;54.558;18.508;2022-10-31T03:49:52;101216.88;;;10.88;100.00
57102;BME280;42982;54.558;18.508;2022-10-31T03:52:42;101214.69;;;10.85;100.00
57102;BME280;42982;54.558;18.508;2022-10-31T03:54:09;101220.06;;;10.85;100.00
57102;BME280;42982;54.558;18.508;2022-10-31T03:55:20;101220.31;;;10.83;100.00
57102;BME280;42982;54.558;18.508;2022-10-31T03:56:33;101216.84;;;10.83;100.00
57102;BME280;42982;54.558;18.508;2022-10-31T03:57:51;101215.47;;;10.80;100.00
57102;BME280;42982;54.558;18.508;2022-10-31T03:59:04;101211.44;;;10.83;100.00
57102;BME280;42982;54.558;18.508;2022-10-31T04:00:27;101210.66;;;10.82;100.00
57102;BME280;42982;54.558;18.508;2022-10-31T04:01:30;101208.50;;;10.79;100.00
57102;BME280;42982;54.558;18.508;2022-10-31T04:02:43;101213.88;;;10.79;100.00
57102;BME280;42982;54.558;18.508;2022-10-31T04:03:50;101207.41;;;10.80;100.00
57102;BME280;42982;54.558;18.508;2022-10-31T04:04:53;101217.63;;;10.83;100.00
57102;BME280;42982;54.558;18.508;2022-10-31T04:05:59;101208.47;;;10.84;100.00
57102;BME280;42982;54.558;18.508;2022-10-31T04:07:04;101217.13;;;10.86;100.00
57102;BME280;42982;54.558;18.508;2022-10-31T04:08:12;101212.25;;;10.83;100.00
57102;BME280;42982;54.558;18.508;2022-10-31T04:09:19;101217.38;;;10.85;100.00
57102;BME280;42982;54.558;18.508;2022-10-31T04:10:23;101214.94;;;10.83;100.00
57102;BME280;42982;54.558;18.508;2022-10-31T04:11:30;101206.88;;;10.83;100.00
57102;BME280;42982;54.558;18.508;2022-10-31T04:12:58;101199.88;;;10.82;100.00
57102;BME280;42982;54.558;18.508;2022-10-31T04:14:11;101203.66;;;10.81;100.00
57102;BME280;42982;54.558;18.508;2022-10-31T04:15:15;101207.16;;;10.82;100.00
57102;BME280;42982;54.558;18.508;2022-10-31T04:16:18;101201.50;;;10.83;100.00
57102;BME280;42982;54.558;18.508;2022-10-31T04:17:23;101212.25;;;10.83;100.00
57102;BME280;42982;54.558;18.508;2022-10-31T04:18:32;101209.84;;;10.82;100.00
57102;BME280;42982;54.558;18.508;2022-10-31T04:19:35;101202.56;;;10.77;100.00
57102;BME280;42982;54.558;18.508;2022-10-31T04:20:40;101204.16;;;10.73;100.00
57102;BME280;42982;54.558;18.508;2022-10-31T04:21:42;101203.56;;;10.61;100.00
57102;BME280;42982;54.558;18.508;2022-10-31T04:22:49;101196.59;;;10.60;100.00
57102;BME280;42982;54.558;18.508;2022-10-31T04:23:55;101197.63;;;10.59;100.00
57102;BME280;42982;54.558;18.508;2022-10-31T04:25:01;101204.09;;;10.58;100.00
57102;BME280;42982;54.558;18.508;2022-10-31T04:26:04;101202.22;;;10.58;100.00
57102;BME280;42982;54.558;18.508;2022-10-31T04:27:09;101205.69;;;10.59;100.00
57102;BME280;42982;54.558;18.508;2022-10-31T04:28:11;101211.59;;;10.56;100.00
57102;BME280;42982;54.558;18.508;2022-10-31T04:29:14;101211.06;;;10.54;100.00
57102;BME280;42982;54.558;18.508;2022-10-31T04:30:17;101205.13;;;10.52;100.00
57102;BME280;42982;54.558;18.508;2022-10-31T04:31:22;101212.13;;;10.53;100.00
57102;BME280;42982;54.558;18.508;2022-10-31T04:32:25;101210.53;;;10.52;100.00
57102;BME280;42982;54.558;18.508;2022-10-31T04:33:33;101210.53;;;10.52;100.00
57102;BME280;42982;54.558;18.508;2022-10-31T04:34:37;101207.59;;;10.53;100.00
57102;BME280;42982;54.558;18.508;2022-10-31T04:35:40;101206.22;;;10.56;100.00
57102;BME280;42982;54.558;18.508;2022-10-31T04:36:42;101208.09;;;10.55;100.00
57102;BME280;42982;54.558;18.508;2022-10-31T04:37:45;101206.75;;;10.53;100.00
57102;BME280;42982;54.558;18.508;2022-10-31T04:38:48;101205.13;;;10.52;100.00
57102;BME280;42982;54.558;18.508;2022-10-31T04:40:14;101203.00;;;10.54;100.00
57102;BME280;42982;54.558;18.508;2022-10-31T04:41:22;101203.25;;;10.52;100.00
57102;BME280;42982;54.558;18.508;2022-10-31T04:42:31;101195.19;;;10.52;100.00
57102;BME280;42982;54.558;18.508;2022-10-31T04:43:39;101197.63;;;10.54;100.00
57102;BME280;42982;54.558;18.508;2022-10-31T04:44:42;101193.88;;;10.55;100.00
57102;BME280;42982;54.558;18.508;2022-10-31T04:45:45;101190.09;;;10.56;100.00
57102;BME280;42982;54.558;18.508;2022-10-31T04:46:48;101192.53;;;10.57;100.00
57102;BME280;42982;54.558;18.508;2022-10-31T04:47:54;101194.94;;;10.59;100.00
57102;BME280;42982;54.558;18.508;2022-10-31T04:48:57;101190.13;;;10.61;100.00
57102;BME280;42982;54.558;18.508;2022-10-31T04:50:02;101191.19;;;10.60;100.00
57102;BME280;42982;54.558;18.508;2022-10-31T04:51:10;101189.56;;;10.59;100.00
57102;BME280;42982;54.558;18.508;2022-10-31T04:52:17;101185.28;;;10.58;100.00
57102;BME280;42982;54.558;18.508;2022-10-31T04:53:20;101186.88;;;10.59;100.00
57102;BME280;42982;54.558;18.508;2022-10-31T04:54:58;101184.19;;;10.59;100.00
57102;BME280;42982;54.558;18.508;2022-10-31T04:56:24;101175.31;;;10.58;100.00
57102;BME280;42982;54.558;18.508;2022-10-31T04:57:43;101174.28;;;10.59;100.00
57102;BME280;42982;54.558;18.508;2022-10-31T04:58:50;101175.06;;;10.60;100.00
57102;BME280;42982;54.558;18.508;2022-10-31T04:59:54;101175.88;;;10.60;100.00
57102;BME280;42982;54.558;18.508;2022-10-31T05:01:04;101177.75;;;10.60;100.00
57102;BME280;42982;54.558;18.508;2022-10-31T05:02:09;101176.13;;;10.59;100.00
57102;BME280;42982;54.558;18.508;2022-10-31T05:03:20;101175.59;;;10.57;100.00
57102;BME280;42982;54.558;18.508;2022-10-31T05:04:28;101176.41;;;10.57;100.00
57102;BME280;42982;54.558;18.508;2022-10-31T05:05:33;101176.41;;;10.57;100.00
57102;BME280;42982;54.558;18.508;2022-10-31T05:06:39;101178.28;;;10.57;100.00
57102;BME280;42982;54.558;18.508;2022-10-31T05:07:47;101172.91;;;10.57;100.00
57102;BME280;42982;54.558;18.508;2022-10-31T05:08:53;101176.66;;;10.56;100.00
57102;BME280;42982;54.558;18.508;2022-10-31T05:09:59;101177.16;;;10.53;100.00
57102;BME280;42982;54.558;18.508;2022-10-31T05:11:05;101171.00;;;10.52;100.00
57102;BME280;42982;54.558;18.508;2022-10-31T05:12:10;101169.09;;;10.53;100.00
57102;BME280;42982;54.558;18.508;2022-10-31T05:13:31;101174.47;;;10.53;100.00
57102;BME280;42982;54.558;18.508;2022-10-31T05:14:59;101170.19;;;10.52;100.00
57102;BME280;42982;54.558;18.508;2022-10-31T05:16:17;101168.56;;;10.51;100.00
57102;BME280;42982;54.558;18.508;2022-10-31T05:17:40;101169.38;;;10.51;100.00
57102;BME280;42982;54.558;18.508;2022-10-31T05:19:02;101166.16;;;10.54;100.00
57102;BME280;42982;54.558;18.508;2022-10-31T05:20:09;101171.53;;;10.54;100.00
57102;BME280;42982;54.558;18.508;2022-10-31T05:21:35;101174.78;;;10.56;100.00
57102;BME280;42982;54.558;18.508;2022-10-31T05:22:48;101170.22;;;10.57;100.00
57102;BME280;42982;54.558;18.508;2022-10-31T05:23:50;101169.13;;;10.58;100.00
57102;BME280;42982;54.558;18.508;2022-10-31T05:24:58;101161.06;;;10.58;100.00
57102;BME280;42982;54.558;18.508;2022-10-31T05:26:04;101168.34;;;10.57;100.00
57102;BME280;42982;54.558;18.508;2022-10-31T05:27:11;101166.44;;;10.58;100.00
57102;BME280;42982;54.558;18.508;2022-10-31T05:28:16;101171.31;;;10.61;100.00
57102;BME280;42982;54.558;18.508;2022-10-31T05:29:19;101174.53;;;10.63;100.00
57102;BME280;42982;54.558;18.508;2022-10-31T05:30:26;101169.16;;;10.63;100.00
57102;BME280;42982;54.558;18.508;2022-10-31T05:31:32;101170.25;;;10.67;100.00
57102;BME280;42982;54.558;18.508;2022-10-31T05:32:57;101177.78;;;10.70;100.00
57102;BME280;42982;54.558;18.508;2022-10-31T05:34:26;101164.34;;;10.70;100.00
57102;BME280;42982;54.558;18.508;2022-10-31T05:35:56;101177.81;;;10.75;100.00
57102;BME280;42982;54.558;18.508;2022-10-31T05:37:05;101180.22;;;10.77;100.00
57102;BME280;42982;54.558;18.508;2022-10-31T05:38:09;101182.91;;;10.77;100.00
57102;BME280;42982;54.558;18.508;2022-10-31T05:39:11;101179.97;;;10.78;100.00
57102;BME280;42982;54.558;18.508;2022-10-31T05:40:20;101177.56;;;10.82;100.00
57102;BME280;42982;54.558;18.508;2022-10-31T05:41:23;101184.03;;;10.86;100.00
57102;BME280;42982;54.558;18.508;2022-10-31T05:42:26;101188.59;;;10.90;100.00
57102;BME280;42982;54.558;18.508;2022-10-31T05:43:31;101189.97;;;10.93;100.00
57102;BME280;42982;54.558;18.508;2022-10-31T05:44:40;101187.00;;;10.95;100.00
57102;BME280;42982;54.558;18.508;2022-10-31T05:46:02;101206.38;;;10.97;100.00
57102;BME280;42982;54.558;18.508;2022-10-31T05:47:32;101196.16;;;10.99;100.00
57102;BME280;42982;54.558;18.508;2022-10-31T05:48:53;101199.41;;;11.01;100.00
57102;BME280;42982;54.558;18.508;2022-10-31T05:50:19;101196.19;;;11.04;100.00
57102;BME280;42982;54.558;18.508;2022-10-31T05:51:32;101195.66;;;11.07;100.00
57102;BME280;42982;54.558;18.508;2022-10-31T05:52:35;101199.16;;;11.07;100.00
57102;BME280;42982;54.558;18.508;2022-10-31T05:53:49;101204.81;;;11.11;100.00
57102;BME280;42982;54.558;18.508;2022-10-31T05:54:52;101208.84;;;11.13;100.00
57102;BME280;42982;54.558;18.508;2022-10-31T05:55:56;101206.16;;;11.13;100.00
57102;BME280;42982;54.558;18.508;2022-10-31T05:57:00;101211.00;;;11.17;100.00
57102;BME280;42982;54.558;18.508;2022-10-31T05:58:08;101213.44;;;11.18;100.00
57102;BME280;42982;54.558;18.508;2022-10-31T05:59:12;101208.56;;;11.15;100.00
57102;BME280;42982;54.558;18.508;2022-10-31T06:00:17;101212.91;;;11.16;100.00
57102;BME280;42982;54.558;18.508;2022-10-31T06:01:24;101208.84;;;11.19;100.00
57102;BME280;42982;54.558;18.508;2022-10-31T06:02:26;101211.81;;;11.22;100.00
57102;BME280;42982;54.558;18.508;2022-10-31T06:03:59;101209.41;;;11.26;100.00
57102;BME280;42982;54.558;18.508;2022-10-31T06:05:04;101210.50;;;11.30;100.00
57102;BME280;42982;54.558;18.508;2022-10-31T06:06:10;101211.03;;;11.32;100.00
57102;BME280;42982;54.558;18.508;2022-10-31T06:07:18;101218.59;;;11.35;100.00
57102;BME280;42982;54.558;18.508;2022-10-31T06:08:24;101218.31;;;11.36;100.00
57102;BME280;42982;54.558;18.508;2022-10-31T06:09:27;101222.06;;;11.41;100.00
57102;BME280;42982;54.558;18.508;2022-10-31T06:10:37;101226.94;;;11.44;100.00
57102;BME280;42982;54.558;18.508;2022-10-31T06:11:39;101226.38;;;11.47;100.00
57102;BME280;42982;54.558;18.508;2022-10-31T06:13:01;101231.00;;;11.51;100.00
57102;BME280;42982;54.558;18.508;2022-10-31T06:14:13;101225.06;;;11.54;100.00
57102;BME280;42982;54.558;18.508;2022-10-31T06:15:34;101219.94;;;11.58;100.00
57102;BME280;42982;54.558;18.508;2022-10-31T06:16:37;101220.22;;;11.62;100.00
57102;BME280;42982;54.558;18.508;2022-10-31T06:18:05;101221.03;;;11.67;100.00
57102;BME280;42982;54.558;18.508;2022-10-31T06:19:11;101213.47;;;11.69;100.00
57102;BME280;42982;54.558;18.508;2022-10-31T06:20:14;101216.16;;;11.74;100.00
57102;BME280;42982;54.558;18.508;2022-10-31T06:21:29;101222.09;;;11.76;100.00